createdAt,value
2023-08-11T00:01:07.214Z,17.17
2023-08-11T00:03:35.410Z,17.16
2023-08-11T00:06:03.147Z,17.03
2023-08-11T00:08:30.814Z,17.05
2023-08-11T00:10:59.829Z,17.00
2023-08-11T00:13:27.460Z,16.90
2023-08-11T00:15:56.702Z,16.83
2023-08-11T00:18:24.410Z,16.91
2023-08-11T00:20:52.297Z,16.80
2023-08-11T00:23:20.022Z,16.91
2023-08-11T00:25:47.672Z,16.91
2023-08-11T00:28:16.719Z,16.92
2023-08-11T00:30:44.432Z,16.85
2023-08-11T00:33:12.321Z,16.90
2023-08-11T00:35:40.005Z,16.77
2023-08-11T00:38:07.620Z,16.68
2023-08-11T00:40:35.367Z,16.68
2023-08-11T00:43:03.032Z,16.61
2023-08-11T00:45:32.249Z,16.68
2023-08-11T00:48:00.139Z,16.70
2023-08-11T00:50:28.174Z,16.69
2023-08-11T00:52:56.337Z,16.60
2023-08-11T00:55:24.096Z,16.62
2023-08-11T00:57:51.803Z,16.53
2023-08-11T01:00:20.085Z,16.39
2023-08-11T01:02:49.390Z,16.46
2023-08-11T01:05:18.911Z,16.48
2023-08-11T01:07:56.032Z,16.50
2023-08-11T01:10:29.813Z,16.39
2023-08-11T01:13:02.596Z,16.43
2023-08-11T01:15:33.984Z,16.43
2023-08-11T01:18:04.254Z,16.50
2023-08-11T01:20:32.459Z,16.47
2023-08-11T01:23:02.264Z,16.36
2023-08-11T01:25:31.386Z,16.39
2023-08-11T01:28:01.311Z,16.42
2023-08-11T01:30:31.297Z,16.43
2023-08-11T01:32:59.097Z,16.55
2023-08-11T01:35:39.120Z,16.45
2023-08-11T01:38:09.728Z,16.17
2023-08-11T01:40:39.490Z,16.09
2023-08-11T01:43:08.293Z,16.03
2023-08-11T01:45:36.408Z,16.09
2023-08-11T01:48:04.674Z,15.97
2023-08-11T01:50:33.985Z,15.91
2023-08-11T01:53:01.693Z,15.94
2023-08-11T01:55:30.134Z,15.88
2023-08-11T01:58:00.362Z,15.85
2023-08-11T02:00:29.306Z,15.75
2023-08-11T02:02:58.531Z,15.78
2023-08-11T02:05:26.858Z,15.66
2023-08-11T02:07:56.677Z,15.77
2023-08-11T02:10:24.838Z,15.71
2023-08-11T02:12:52.597Z,15.58
2023-08-11T02:15:21.677Z,15.54
2023-08-11T02:17:49.927Z,15.48
2023-08-11T02:20:22.896Z,15.42
2023-08-11T02:22:51.804Z,15.39
2023-08-11T02:25:19.521Z,15.40
2023-08-11T02:27:47.188Z,15.33
2023-08-11T02:30:15.462Z,15.33
2023-08-11T02:32:46.825Z,15.21
2023-08-11T02:35:15.375Z,15.32
2023-08-11T02:37:43.319Z,15.24
2023-08-11T02:40:11.955Z,15.29
2023-08-11T02:42:40.591Z,15.16
2023-08-11T02:45:11.514Z,15.26
2023-08-11T02:47:41.441Z,15.18
2023-08-11T02:50:11.624Z,15.19
2023-08-11T02:52:39.665Z,15.38
2023-08-11T02:55:09.633Z,15.28
2023-08-11T02:57:37.968Z,15.60
2023-08-11T03:00:09.479Z,14.96
2023-08-11T03:02:37.658Z,14.91
2023-08-11T03:05:08.301Z,14.99
2023-08-11T03:07:37.714Z,14.86
2023-08-11T03:10:06.183Z,14.77
2023-08-11T03:12:34.017Z,14.83
2023-08-11T03:15:01.673Z,14.89
2023-08-11T03:17:29.434Z,14.87
2023-08-11T03:19:57.105Z,14.92
2023-08-11T03:22:24.890Z,14.78
2023-08-11T03:24:54.275Z,14.73
2023-08-11T03:27:22.009Z,14.65
2023-08-11T03:29:49.678Z,14.77
2023-08-11T03:32:17.416Z,14.81
2023-08-11T03:34:45.197Z,14.69
2023-08-11T03:37:12.905Z,14.50
2023-08-11T03:39:40.608Z,14.54
2023-08-11T03:42:11.446Z,14.60
2023-08-11T03:44:41.533Z,14.65
2023-08-11T03:47:09.175Z,14.58
2023-08-11T03:49:37.001Z,14.57
2023-08-11T03:52:04.936Z,14.48
2023-08-11T03:54:44.471Z,14.51
2023-08-11T03:57:14.912Z,14.46
2023-08-11T03:59:42.662Z,14.39
2023-08-11T04:02:10.656Z,14.54
2023-08-11T04:04:38.704Z,14.57
2023-08-11T04:07:06.683Z,14.70
2023-08-11T04:09:35.294Z,14.61
2023-08-11T04:12:03.761Z,14.67
2023-08-11T04:14:33.051Z,14.78
2023-08-11T04:17:00.877Z,14.80
2023-08-11T04:19:28.552Z,14.81
2023-08-11T04:21:56.251Z,14.86
2023-08-11T04:24:23.888Z,14.79
2023-08-11T04:26:52.223Z,14.86
2023-08-11T04:29:19.894Z,14.90
2023-08-11T04:31:49.147Z,14.91
2023-08-11T04:34:17.550Z,14.89
2023-08-11T04:36:45.971Z,14.98
2023-08-11T04:39:13.691Z,14.95
2023-08-11T04:41:41.494Z,14.98
2023-08-11T04:44:10.024Z,14.85
2023-08-11T04:46:37.760Z,14.94
2023-08-11T04:49:06.913Z,14.92
2023-08-11T04:51:34.751Z,14.89
2023-08-11T04:54:04.104Z,14.93
2023-08-11T04:56:31.903Z,14.93
2023-08-11T04:58:59.558Z,14.94
2023-08-11T05:01:27.278Z,14.84
2023-08-11T05:03:55.127Z,14.93
2023-08-11T05:06:24.175Z,14.92
2023-08-11T05:08:51.868Z,14.85
2023-08-11T05:11:19.521Z,14.94
2023-08-11T05:13:47.170Z,14.91
2023-08-11T05:16:15.009Z,15.03
2023-08-11T05:18:44.287Z,15.04
2023-08-11T05:21:12.843Z,15.12
2023-08-11T05:23:41.904Z,15.22
2023-08-11T05:26:09.728Z,15.25
2023-08-11T05:28:37.482Z,15.32
2023-08-11T05:31:05.807Z,15.47
2023-08-11T05:33:34.555Z,15.57
2023-08-11T05:36:02.718Z,15.68
2023-08-11T05:38:30.603Z,15.79
2023-08-11T05:40:59.647Z,15.84
2023-08-11T05:43:27.385Z,15.92
2023-08-11T05:45:55.104Z,15.93
2023-08-11T05:48:22.924Z,16.01
2023-08-11T05:50:51.363Z,16.14
2023-08-11T05:53:19.134Z,16.27
2023-08-11T05:55:46.805Z,16.40
2023-08-11T05:58:15.797Z,16.40
2023-08-11T06:00:43.457Z,16.45
2023-08-11T06:03:11.142Z,16.53
2023-08-11T06:05:39.488Z,16.65
2023-08-11T06:08:07.388Z,16.80
2023-08-11T06:10:35.357Z,16.86
2023-08-11T06:13:03.188Z,16.89
2023-08-11T06:15:32.273Z,16.94
2023-08-11T06:18:00.175Z,17.10
2023-08-11T06:20:40.237Z,17.15
2023-08-11T06:23:09.117Z,17.25
2023-08-11T06:25:37.038Z,17.21
2023-08-11T06:28:05.182Z,17.17
2023-08-11T06:30:34.503Z,17.48
2023-08-11T06:33:02.573Z,17.56
2023-08-11T06:35:30.789Z,17.70
2023-08-11T06:37:58.488Z,17.54
2023-08-11T06:40:26.363Z,17.65
2023-08-11T06:42:54.048Z,17.63
2023-08-11T06:45:21.769Z,17.71
2023-08-11T06:47:50.928Z,17.72
2023-08-11T06:50:18.725Z,17.32
2023-08-11T06:52:46.415Z,17.53
2023-08-11T06:55:14.132Z,17.50
2023-08-11T06:57:41.892Z,17.48
2023-08-11T07:00:10.711Z,17.64
2023-08-11T07:02:38.466Z,17.62
2023-08-11T07:05:07.939Z,17.68
2023-08-11T07:07:35.608Z,17.64
2023-08-11T07:10:04.675Z,17.85
2023-08-11T07:12:32.511Z,17.97
2023-08-11T07:15:00.280Z,17.84
2023-08-11T07:17:27.965Z,17.92
2023-08-11T07:19:55.610Z,18.05
2023-08-11T07:22:24.608Z,18.24
2023-08-11T07:24:52.315Z,18.40
2023-08-11T07:27:20.020Z,18.53
2023-08-11T07:29:47.707Z,18.61
2023-08-11T07:32:15.399Z,18.50
2023-08-11T07:34:43.117Z,18.67
2023-08-11T07:37:11.175Z,18.64
2023-08-11T07:39:40.417Z,18.90
2023-08-11T07:42:08.097Z,18.93
2023-08-11T07:44:36.050Z,18.94
2023-08-11T07:47:04.147Z,19.10
2023-08-11T07:49:32.523Z,19.27
2023-08-11T07:52:00.279Z,19.54
2023-08-11T07:54:28.081Z,19.80
2023-08-11T07:56:57.195Z,20.00
2023-08-11T07:59:24.947Z,20.12
2023-08-11T08:01:53.362Z,19.88
2023-08-11T08:04:21.289Z,20.03
2023-08-11T08:06:48.987Z,20.10
2023-08-11T08:09:16.993Z,20.41
2023-08-11T08:11:46.512Z,20.63
2023-08-11T08:14:15.773Z,20.45
2023-08-11T08:16:45.626Z,20.38
2023-08-11T08:19:15.211Z,20.59
2023-08-11T08:21:43.583Z,20.57
2023-08-11T08:24:11.511Z,20.87
2023-08-11T08:26:39.342Z,20.97
2023-08-11T08:29:07.103Z,21.18
2023-08-11T08:31:36.141Z,21.22
2023-08-11T08:34:04.117Z,21.29
2023-08-11T08:36:31.806Z,21.30
2023-08-11T08:38:59.455Z,21.46
2023-08-11T08:41:29.430Z,21.47
2023-08-11T08:43:57.502Z,21.41
2023-08-11T08:46:29.493Z,21.58
2023-08-11T08:49:06.533Z,21.93
2023-08-11T08:51:34.598Z,22.02
2023-08-11T08:54:02.565Z,22.15
2023-08-11T08:56:30.683Z,22.43
2023-08-11T08:58:58.560Z,22.62
2023-08-11T09:01:26.572Z,22.70
2023-08-11T09:03:54.795Z,22.67
2023-08-11T09:06:24.025Z,22.94
2023-08-11T09:08:51.693Z,23.02
2023-08-11T09:11:20.057Z,23.35
2023-08-11T09:13:48.008Z,23.35
2023-08-11T09:16:16.217Z,23.46
2023-08-11T09:18:45.180Z,23.55
2023-08-11T09:21:13.997Z,23.66
2023-08-11T09:23:44.782Z,23.97
2023-08-11T09:26:12.397Z,24.17
2023-08-11T09:28:41.538Z,24.32
2023-08-11T09:31:09.249Z,24.43
2023-08-11T09:33:37.158Z,24.43
2023-08-11T09:36:04.973Z,24.45
2023-08-11T09:38:32.724Z,24.52
2023-08-11T09:41:04.179Z,24.67
2023-08-11T09:43:32.750Z,24.86
2023-08-11T09:46:01.695Z,25.16
2023-08-11T09:48:30.730Z,24.94
2023-08-11T09:50:59.252Z,25.15
2023-08-11T09:53:28.141Z,25.25
2023-08-11T09:55:57.398Z,25.41
2023-08-11T09:58:28.470Z,25.45
2023-08-11T10:01:04.128Z,25.58
2023-08-11T10:03:45.236Z,25.78
2023-08-11T10:06:17.643Z,25.64
2023-08-11T10:08:46.777Z,25.89
2023-08-11T10:11:15.596Z,25.99
2023-08-11T10:13:45.124Z,25.99
2023-08-11T10:16:14.163Z,26.06
2023-08-11T10:18:42.154Z,25.91
2023-08-11T10:21:10.053Z,26.17
2023-08-11T10:23:38.464Z,26.32
2023-08-11T10:26:06.279Z,26.44
2023-08-11T10:28:34.450Z,26.52
2023-08-11T10:31:06.706Z,26.72
2023-08-11T10:33:36.454Z,26.66
2023-08-11T10:36:04.696Z,26.38
2023-08-11T10:38:33.653Z,26.62
2023-08-11T10:41:02.195Z,26.74
2023-08-11T10:43:33.424Z,26.91
2023-08-11T10:46:24.660Z,26.74
2023-08-11T10:48:53.206Z,27.06
2023-08-11T10:51:28.883Z,27.05
2023-08-11T10:53:58.021Z,27.00
2023-08-11T10:56:30.044Z,27.23
2023-08-11T10:59:14.229Z,27.19
2023-08-11T11:01:44.410Z,26.97
2023-08-11T11:04:13.288Z,27.35
2023-08-11T11:06:41.710Z,27.52
2023-08-11T11:09:09.597Z,27.47
2023-08-11T11:11:38.638Z,27.52
2023-08-11T11:14:06.567Z,27.29
2023-08-11T11:16:34.677Z,27.56
2023-08-11T11:19:04.689Z,27.67
2023-08-11T11:21:32.956Z,27.88
2023-08-11T11:24:00.847Z,27.93
2023-08-11T11:26:29.898Z,28.09
2023-08-11T11:28:59.533Z,27.93
2023-08-11T11:31:28.862Z,27.83
2023-08-11T11:33:57.030Z,27.99
2023-08-11T11:36:26.482Z,27.77
2023-08-11T11:38:54.204Z,27.85
2023-08-11T11:41:22.559Z,28.09
2023-08-11T11:43:51.363Z,28.20
2023-08-11T11:46:21.281Z,28.21
2023-08-11T11:48:49.969Z,28.30
2023-08-11T11:51:19.746Z,28.50
2023-08-11T11:53:51.725Z,28.30
2023-08-11T11:56:19.966Z,28.51
2023-08-11T11:58:48.701Z,28.59
2023-08-11T12:01:19.368Z,28.71
2023-08-11T12:03:48.233Z,28.64
2023-08-11T12:06:19.210Z,28.51
2023-08-11T12:08:50.121Z,28.82
2023-08-11T12:11:26.394Z,28.95
2023-08-11T12:13:54.212Z,29.01
2023-08-11T12:16:23.575Z,28.88
2023-08-11T12:18:51.436Z,28.92
2023-08-11T12:21:19.216Z,29.17
2023-08-11T12:23:48.212Z,29.30
2023-08-11T12:26:15.823Z,29.08
2023-08-11T12:28:43.462Z,28.66
2023-08-11T12:31:13.050Z,28.70
2023-08-11T12:33:42.215Z,28.92
2023-08-11T12:36:10.063Z,29.22
2023-08-11T12:38:37.989Z,29.04
2023-08-11T12:41:07.036Z,29.21
2023-08-11T12:43:34.706Z,29.65
2023-08-11T12:46:02.456Z,29.49
2023-08-11T12:48:30.192Z,29.79
2023-08-11T12:50:57.856Z,29.66
2023-08-11T12:53:25.726Z,29.56
2023-08-11T12:55:53.378Z,29.70
2023-08-11T12:58:22.421Z,29.69
2023-08-11T13:00:50.123Z,29.75
2023-08-11T13:03:17.853Z,29.61
2023-08-11T13:05:46.071Z,29.92
2023-08-11T13:08:13.755Z,29.18
2023-08-11T13:10:41.483Z,29.27
2023-08-11T13:13:10.786Z,29.62
2023-08-11T13:15:41.324Z,29.84
2023-08-11T13:18:09.088Z,29.78
2023-08-11T13:20:36.796Z,29.97
2023-08-11T13:23:04.822Z,30.26
2023-08-11T13:25:33.077Z,30.19
2023-08-11T13:28:00.702Z,30.65
2023-08-11T13:30:31.945Z,30.54
2023-08-11T13:33:01.466Z,30.19
2023-08-11T13:35:29.105Z,29.82
2023-08-11T13:37:56.770Z,30.09
2023-08-11T13:40:24.908Z,29.88
2023-08-11T13:42:52.607Z,29.70
2023-08-11T13:45:20.286Z,29.88
2023-08-11T13:47:48.166Z,30.08
2023-08-11T13:50:17.304Z,30.23
2023-08-11T13:52:45.666Z,30.28
2023-08-11T13:55:13.365Z,30.12
2023-08-11T13:57:41.170Z,30.11
2023-08-11T14:00:13.399Z,30.15
2023-08-11T14:02:41.156Z,30.16
2023-08-11T14:05:09.724Z,30.15
2023-08-11T14:07:38.805Z,30.40
2023-08-11T14:10:07.372Z,30.36
2023-08-11T14:12:35.433Z,30.50
2023-08-11T14:15:03.111Z,30.37
2023-08-11T14:17:30.777Z,30.46
2023-08-11T14:19:58.458Z,30.66
2023-08-11T14:22:26.255Z,30.64
2023-08-11T14:24:55.996Z,30.15
2023-08-11T14:27:23.770Z,30.07
2023-08-11T14:29:51.975Z,30.04
2023-08-11T14:32:26.098Z,30.12
2023-08-11T14:34:54.467Z,30.17
2023-08-11T14:37:22.658Z,30.19
2023-08-11T14:39:50.348Z,30.21
2023-08-11T14:42:19.589Z,30.12
2023-08-11T14:44:47.381Z,30.36
2023-08-11T14:47:15.811Z,30.09
2023-08-11T14:49:43.849Z,29.90
2023-08-11T14:52:12.379Z,29.78
2023-08-11T14:54:40.434Z,29.46
2023-08-11T14:57:10.450Z,29.93
2023-08-11T14:59:40.129Z,29.75
2023-08-11T15:02:09.218Z,29.49
2023-08-11T15:04:37.234Z,29.73
2023-08-11T15:07:04.993Z,29.63
2023-08-11T15:09:32.730Z,29.69
2023-08-11T15:12:00.497Z,29.58
2023-08-11T15:14:28.285Z,29.68
2023-08-11T15:16:58.414Z,29.89
2023-08-11T15:19:26.098Z,30.19
2023-08-11T15:21:53.750Z,30.24
2023-08-11T15:24:21.384Z,29.90
2023-08-11T15:26:49.074Z,29.88
2023-08-11T15:29:16.845Z,30.04
2023-08-11T15:31:44.593Z,30.00
2023-08-11T15:34:13.583Z,30.24
2023-08-11T15:36:41.621Z,30.25
2023-08-11T15:39:09.605Z,30.40
2023-08-11T15:41:37.433Z,30.46
2023-08-11T15:44:05.676Z,30.53
2023-08-11T15:46:33.495Z,30.46
2023-08-11T15:49:01.407Z,30.49
2023-08-11T15:51:30.478Z,30.50
2023-08-11T15:53:58.114Z,30.41
2023-08-11T15:56:25.775Z,30.28
2023-08-11T15:58:56.647Z,30.34
2023-08-11T16:01:25.251Z,29.96
2023-08-11T16:03:53.550Z,30.10
2023-08-11T16:06:21.251Z,30.12
2023-08-11T16:08:50.265Z,30.27
2023-08-11T16:11:17.896Z,30.24
2023-08-11T16:13:45.676Z,30.34
2023-08-11T16:16:13.395Z,30.29
2023-08-11T16:18:41.132Z,30.37
2023-08-11T16:21:08.833Z,30.35
2023-08-11T16:23:36.742Z,30.38
2023-08-11T16:26:05.765Z,30.40
2023-08-11T16:28:33.924Z,30.52
2023-08-11T16:31:01.657Z,30.49
2023-08-11T16:33:29.460Z,30.51
2023-08-11T16:35:57.092Z,30.48
2023-08-11T16:38:24.751Z,30.64
2023-08-11T16:40:52.414Z,30.53
2023-08-11T16:43:21.500Z,30.52
2023-08-11T16:45:49.513Z,30.56
2023-08-11T16:48:19.861Z,30.66
2023-08-11T16:50:47.776Z,30.69
2023-08-11T16:53:15.426Z,30.41
2023-08-11T16:55:43.104Z,30.45
2023-08-11T16:58:10.747Z,30.42
2023-08-11T17:00:39.787Z,30.30
2023-08-11T17:03:07.522Z,30.31
2023-08-11T17:05:35.529Z,30.23
2023-08-11T17:08:03.202Z,30.02
2023-08-11T17:10:30.836Z,29.97
2023-08-11T17:12:58.501Z,30.12
2023-08-11T17:15:26.226Z,30.06
2023-08-11T17:17:55.245Z,30.07
2023-08-11T17:20:22.977Z,29.97
2023-08-11T17:22:50.633Z,29.88
2023-08-11T17:25:18.593Z,29.81
2023-08-11T17:27:46.434Z,29.76
2023-08-11T17:30:15.236Z,29.78
2023-08-11T17:32:43.761Z,29.72
2023-08-11T17:35:12.804Z,29.61
2023-08-11T17:37:40.472Z,29.58
2023-08-11T17:40:09.897Z,29.42
2023-08-11T17:42:37.569Z,29.49
2023-08-11T17:45:06.078Z,29.33
2023-08-11T17:47:33.831Z,29.06
2023-08-11T17:50:01.599Z,28.99
2023-08-11T17:52:30.598Z,28.84
2023-08-11T17:54:58.264Z,28.70
2023-08-11T17:57:25.932Z,28.53
2023-08-11T17:59:53.699Z,28.43
2023-08-11T18:02:21.368Z,28.26
2023-08-11T18:04:49.158Z,28.09
2023-08-11T18:07:16.940Z,27.99
2023-08-11T18:09:46.005Z,27.85
2023-08-11T18:12:13.875Z,27.80
2023-08-11T18:14:53.833Z,27.61
2023-08-11T18:17:21.570Z,27.50
2023-08-11T18:19:49.322Z,27.46
2023-08-11T18:22:16.939Z,27.40
2023-08-11T18:24:46.323Z,27.31
2023-08-11T18:27:14.206Z,27.26
2023-08-11T18:29:41.994Z,27.16
2023-08-11T18:32:10.386Z,26.96
2023-08-11T18:34:38.569Z,26.80
2023-08-11T18:37:06.359Z,26.81
2023-08-11T18:39:34.002Z,26.58
2023-08-11T18:42:03.116Z,26.44
2023-08-11T18:44:31.014Z,26.37
2023-08-11T18:46:58.673Z,26.23
2023-08-11T18:49:28.131Z,26.15
2023-08-11T18:51:55.778Z,26.03
2023-08-11T18:54:23.618Z,25.99
2023-08-11T18:56:51.469Z,25.84
2023-08-11T18:59:20.497Z,25.75
2023-08-11T19:01:48.394Z,25.69
2023-08-11T19:04:16.239Z,25.50
2023-08-11T19:06:44.386Z,25.41
2023-08-11T19:09:12.071Z,25.42
2023-08-11T19:11:39.910Z,25.29
2023-08-11T19:14:08.520Z,25.25
2023-08-11T19:16:38.030Z,25.14
2023-08-11T19:19:06.130Z,25.10
2023-08-11T19:21:33.757Z,25.09
2023-08-11T19:24:01.371Z,24.99
2023-08-11T19:26:29.158Z,24.92
2023-08-11T19:28:57.419Z,24.90
2023-08-11T19:31:25.090Z,24.78
2023-08-11T19:33:54.174Z,24.70
2023-08-11T19:36:21.833Z,24.73
2023-08-11T19:38:49.464Z,24.65
2023-08-11T19:41:17.107Z,24.56
2023-08-11T19:43:44.763Z,24.54
2023-08-11T19:46:12.548Z,24.44
2023-08-11T19:48:40.879Z,24.41
2023-08-11T19:51:09.865Z,24.50
2023-08-11T19:53:37.508Z,24.40
2023-08-11T19:56:05.847Z,24.41
2023-08-11T19:58:33.462Z,24.32
2023-08-11T20:01:01.140Z,24.30
2023-08-11T20:03:28.844Z,24.21
2023-08-11T20:05:56.509Z,24.25
2023-08-11T20:08:25.612Z,24.18
2023-08-11T20:10:53.268Z,24.15
2023-08-11T20:13:20.951Z,24.10
2023-08-11T20:15:48.793Z,24.08
2023-08-11T20:18:16.606Z,24.00
2023-08-11T20:20:45.349Z,24.04
2023-08-11T20:23:13.162Z,24.02
2023-08-11T20:25:42.081Z,24.04
2023-08-11T20:28:09.858Z,24.00
2023-08-11T20:30:37.856Z,23.98
2023-08-11T20:33:06.052Z,23.91
2023-08-11T20:35:33.716Z,23.92
2023-08-11T20:38:01.412Z,23.83
2023-08-11T20:40:29.106Z,23.81
2023-08-11T20:42:58.137Z,23.77
2023-08-11T20:45:30.675Z,23.83
2023-08-11T20:48:01.033Z,23.83
2023-08-11T20:50:28.946Z,23.82
2023-08-11T20:52:56.743Z,23.81
2023-08-11T20:55:24.407Z,23.82
2023-08-11T20:57:52.057Z,23.76
2023-08-11T21:00:21.285Z,23.72
2023-08-11T21:02:49.024Z,23.65
2023-08-11T21:05:17.078Z,23.58
2023-08-11T21:07:44.822Z,23.47
2023-08-11T21:10:15.875Z,23.35
2023-08-11T21:12:44.060Z,23.29
2023-08-11T21:15:12.004Z,23.21
2023-08-11T21:17:41.069Z,23.19
2023-08-11T21:20:10.026Z,23.08
2023-08-11T21:22:37.834Z,23.09
2023-08-11T21:25:05.990Z,23.03
2023-08-11T21:27:33.770Z,23.06
2023-08-11T21:30:01.578Z,22.98
2023-08-11T21:32:29.293Z,22.93
2023-08-11T21:34:58.376Z,22.96
2023-08-11T21:37:26.186Z,22.91
2023-08-11T21:39:53.950Z,22.84
2023-08-11T21:42:21.747Z,22.68
2023-08-11T21:44:49.436Z,22.80
2023-08-11T21:47:17.150Z,22.69
2023-08-11T21:49:44.904Z,22.64
2023-08-11T21:52:14.067Z,22.79
2023-08-11T21:54:41.741Z,22.93
2023-08-11T21:57:11.342Z,22.86
2023-08-11T21:59:41.880Z,22.94
2023-08-11T22:02:09.887Z,22.88
2023-08-11T22:04:38.338Z,22.81
2023-08-11T22:07:06.217Z,22.74
2023-08-11T22:09:35.286Z,22.69
2023-08-11T22:12:03.031Z,22.62
2023-08-11T22:14:30.706Z,22.58
2023-08-11T22:16:59.608Z,22.47
2023-08-11T22:19:27.531Z,22.41
2023-08-11T22:21:55.209Z,22.38
2023-08-11T22:24:34.656Z,22.45
2023-08-11T22:27:08.805Z,22.50
2023-08-11T22:29:36.981Z,22.39
2023-08-11T22:32:05.242Z,22.43
2023-08-11T22:34:32.998Z,22.04
2023-08-11T22:37:00.808Z,21.93
2023-08-11T22:39:28.577Z,21.87
2023-08-11T22:41:56.261Z,21.89
2023-08-11T22:44:25.308Z,21.90
2023-08-11T22:46:53.337Z,21.79
2023-08-11T22:49:21.051Z,21.68
2023-08-11T22:51:48.741Z,21.55
2023-08-11T22:54:16.514Z,21.62
2023-08-11T22:56:44.245Z,21.64
2023-08-11T22:59:11.927Z,21.50
2023-08-11T23:01:40.931Z,21.41
2023-08-11T23:04:08.798Z,21.58
2023-08-11T23:06:36.663Z,21.60
2023-08-11T23:09:04.640Z,21.75
2023-08-11T23:11:32.419Z,21.84
2023-08-11T23:14:00.112Z,21.86
2023-08-11T23:16:28.098Z,21.86
2023-08-11T23:18:57.178Z,21.82
2023-08-11T23:21:24.932Z,21.61
2023-08-11T23:23:52.599Z,21.77
2023-08-11T23:26:20.312Z,21.70
2023-08-11T23:28:48.265Z,21.73
2023-08-11T23:31:17.513Z,21.63
2023-08-11T23:33:45.421Z,21.54
2023-08-11T23:36:14.486Z,21.46
2023-08-11T23:38:42.196Z,21.26
2023-08-11T23:41:09.850Z,21.16
2023-08-11T23:43:37.787Z,21.06
2023-08-11T23:46:08.092Z,20.97
2023-08-11T23:48:35.957Z,21.14
2023-08-11T23:51:03.720Z,21.09
2023-08-11T23:53:32.757Z,21.09
2023-08-11T23:56:00.630Z,21.17
2023-08-11T23:58:28.508Z,21.10
